Data for 09/26/2014

Time Sea-Level Adjusted Pressure Absolute Pressure Temperature Relative Humidity Dew Point   
(mb) (inHg) (mb) (inHg) (C) (F) (%) (C) (F)
00:05 1013 29.91 842 24.86 23.2 73.8 19 -1.4 29.5
00:10 1013 29.91 842 24.86 23.3 73.9 19 -1.2 29.9
00:15 1013 29.91 842 24.86 23.2 73.8 20 -0.6 30.8
00:20 1013 29.91 842 24.86 22.8 73 21 -0.4 31.3
00:25 1013 29.91 842 24.86 22.3 72.2 22 -0.5 31.1
00:30 1013 29.91 842 24.86 22.4 72.3 21 -1.1 30
00:35 1013 29.91 843 24.89 22.6 72.7 22 -0.3 31.5
00:40 1013 29.91 843 24.89 21.8 71.2 22 -0.4 31.2
00:45 1013 29.91 843 24.89 21.8 71.2 22 -0.7 30.8
00:50 1014 29.94 843 24.89 21.5 70.6 26 1.2 34.2
00:55 1014 29.94 843 24.89 20.8 69.4 24 -0.2 31.7
01:00 1014 29.94 843 24.89 20.7 69.3 25 0.2 32.4
01:05 1014 29.94 843 24.89 20.9 69.7 23 -0.6 31
01:10 1014 29.94 843 24.89 21 69.7 25 0.6 33
01:15 1014 29.94 843 24.89 20.2 68.3 26 0.3 32.5
01:20 1014 29.94 843 24.89 19.7 67.5 26 0.1 32.2
01:25 1014 29.94 843 24.89 19.6 67.3 27 0.1 32.2
01:30 1014 29.94 843 24.89 19.9 67.8 25 -0.8 30.6
01:35 1014 29.94 843 24.89 20.5 68.9 24 -0.5 31.1
01:40 1014 29.94 843 24.89 20.6 69 24 -0.6 31
01:45 1014 29.94 843 24.89 20.5 68.9 25 -0 31.9
01:50 1014 29.94 843 24.89 20 68 27 0.6 33
01:55 1014 29.94 843 24.89 19.4 67 27 -0.1 31.9
02:00 1014 29.94 843 24.89 19.5 67.2 28 0.6 33
02:05 1014 29.94 843 24.89 19.4 66.8 27 0.3 32.5
02:10 1014 29.94 843 24.89 19.2 66.5 29 1.1 34
02:15 1014 29.94 843 24.89 18.6 65.6 30 0.7 33.3
02:20 1014 29.94 843 24.89 18.3 65 29 0.3 32.6
02:25 1014 29.94 843 24.89 18.3 64.9 30 0.3 32.6
02:30 1014 29.94 843 24.89 18.2 64.7 33 1.7 35
02:35 1014 29.94 843 24.89 17.3 63.2 33 0.9 33.6
02:40 1014 29.94 843 24.89 17.6 63.8 31 0.5 32.9
02:45 1014 29.94 843 24.89 17.8 64.1 31 0.8 33.4
02:50 1014 29.94 843 24.89 18 64.4 32 1.1 33.9
02:55 1014 29.94 843 24.89 17.8 64 32 1.1 33.9
03:00 1014 29.94 843 24.89 17.4 63.3 33 1.1 34
03:05 1014 29.94 843 24.89 17.6 63.7 31 0.6 33.1
03:10 1014 29.94 843 24.89 18.3 64.9 30 0.6 33
03:15 1014 29.94 843 24.89 18.6 65.4 31 1.2 34.2
03:20 1014 29.94 843 24.89 18.2 64.7 32 1.3 34.4
03:25 1014 29.94 843 24.89 17.8 64.1 32 1.1 33.9
03:30 1014 29.94 843 24.89 18.3 64.9 30 0.8 33.4
03:35 1014 29.94 843 24.89 18.3 64.9 31 1.1 34
03:40 1014 29.94 843 24.89 18.6 65.6 30 0.7 33.3
03:45 1014 29.94 843 24.89 18.7 65.6 32 1.6 34.8
03:50 1014 29.94 843 24.89 18.3 64.9 31 1 33.9
03:55 1014 29.94 843 24.89 18.7 65.6 31 1.4 34.5
04:00 1014 29.94 843 24.89 19.1 66.4 29 1 33.8
04:05 1014 29.94 843 24.89 19.1 66.3 31 1.9 35.4
04:10 1014 29.94 843 24.89 18.7 65.7 31 1.3 34.3
04:15 1014 29.94 843 24.89 19 66.2 30 1.2 34.1
04:20 1014 29.94 843 24.89 19.2 66.5 30 1.6 34.8
04:25 1014 29.94 844 24.92 19 66.1 30 1.3 34.3
04:30 1014 29.94 844 24.92 19.2 66.5 30 1.5 34.7
04:35 1014 29.94 844 24.92 19.7 67.4 37 4.7 40.5
04:40 1014 29.94 844 24.92 19.4 66.9 32 2.6 36.7
04:45 1015 29.97 844 24.92 19.9 67.9 29 1.4 34.5
04:50 1015 29.97 844 24.92 19.9 67.8 32 2.7 36.8
04:55 1015 29.97 844 24.92 18.9 66 32 2.1 35.7
05:00 1015 29.97 844 24.92 18.6 65.5 32 1.7 35.1
05:05 1015 29.97 844 24.92 18.9 66 31 1.3 34.4
05:10 1015 29.97 844 24.92 19.3 66.7 30 1.3 34.4
05:15 1015 29.97 844 24.92 19.6 67.3 29 1.3 34.4
05:20 1015 29.97 844 24.92 19.7 67.4 29 1.5 34.8
05:25 1015 29.97 844 24.92 19.5 67.2 30 1.6 34.9
05:30 1015 29.97 844 24.92 19.5 67.1 29 1.3 34.4
05:35 1015 29.97 844 24.92 19.7 67.5 29 1.5 34.8
05:40 1015 29.97 844 24.92 19.7 67.5 30 1.7 35
05:45 1015 29.97 844 24.92 19.5 67.1 31 1.9 35.4
05:50 1015 29.97 844 24.92 19 66.2 32 2.1 35.9
05:55 1015 29.97 844 24.92 18.5 65.3 33 2.2 36
06:00 1015 29.97 845 24.95 18.2 64.7 35 2.5 36.5
06:05 1015 29.97 844 24.92 18 64.4 34 1.9 35.5
06:10 1015 29.97 845 24.95 18 64.5 35 2.5 36.5
06:15 1015 29.97 845 24.95 17.8 64.1 39 3.8 38.9
06:20 1016 30 845 24.95 17.4 63.4 37 2.6 36.7
06:25 1016 30 845 24.95 17.6 63.7 34 1.9 35.4
06:30 1016 30 845 24.95 17.9 64.2 35 2.4 36.3
06:35 1016 30 845 24.95 17.8 64 36 2.8 37
06:40 1016 30 845 24.95 17.6 63.7 40 3.9 39.1
06:45 1016 30 845 24.95 17.5 63.4 40 3.8 38.8
06:50 1016 30 845 24.95 17.1 62.8 40 3.6 38.5
06:55 1016 30 845 24.95 17 62.7 40 3.4 38.1
07:00 1016 30 845 24.95 17.1 62.7 40 3.3 38
07:05 1016 30 845 24.95 17.7 63.9 39 3.6 38.5
07:10 1016 30 845 24.95 17.9 64.1 40 4.1 39.4
07:15 1016 30 845 24.95 18.1 64.7 38 3.6 38.5
07:20 1016 30 845 24.95 18.1 64.6 41 4.7 40.4
07:25 1016 30 845 24.95 18.3 65 40 4.8 40.6
07:30 1016 30 845 24.95 18.7 65.7 38 4.3 39.8
07:35 1016 30 845 24.95 18.9 66 38 4.6 40.3
07:40 1016 30 846 24.98 19 66.2 39 4.8 40.6
07:45 1016 30 846 24.98 19.2 66.6 37 4.4 40
07:50 1017 30.03 846 24.98 18.7 65.7 41 5.2 41.4
07:55 1017 30.03 846 24.98 18.1 64.7 42 5.1 41.1
08:00 1017 30.03 846 24.98 18.2 64.7 44 5.7 42.2
08:05 1017 30.03 846 24.98 18 64.3 44 5.7 42.3
08:10 1017 30.03 846 24.98 17.8 64 46 6 42.8
08:15 1017 30.03 846 24.98 17.8 64 44 5.5 41.9
08:20 1017 30.03 846 24.98 17.8 64.1 44 5.4 41.8
08:25 1017 30.03 846 24.98 18 64.3 43 5.2 41.4
08:30 1017 30.03 846 24.98 18.9 66 39 4.9 40.8
08:35 1017 30.03 846 24.98 18.7 65.7 39 4.6 40.3
08:40 1017 30.03 846 24.98 19.4 66.8 37 4.3 39.7
08:45 1017 30.03 846 24.98 19.3 66.7 37 4.4 40
08:50 1017 30.03 846 24.98 19.4 66.9 36 3.9 39.1
08:55 1017 30.03 846 24.98 19.7 67.5 36 4.4 39.9
09:00 1017 30.03 846 24.98 20.1 68.1 37 4.9 40.9
09:05 1017 30.03 847 25.01 19.8 67.6 38 5.2 41.3
09:10 1017 30.03 847 25.01 19.3 66.7 40 5.6 42
09:15 1018 30.06 847 25.01 18.6 65.5 42 5.5 41.8
09:20 1018 30.06 847 25.01 17.9 64.1 45 5.9 42.5
09:25 1018 30.06 847 25.01 17.3 63.2 44 5 41.1
09:30 1018 30.06 847 25.01 17.3 63.1 48 6.1 43
09:35 1018 30.06 847 25.01 17.8 64 49 6.9 44.4
09:40 1018 30.06 847 25.01 18.3 64.9 47 6.9 44.5
09:45 1017 30.03 847 25.01 19.1 66.3 41 5.6 42.2
09:50 1017 30.03 847 25.01 19.3 66.7 41 5.9 42.6
09:55 1017 30.03 847 25.01 19.1 66.4 41 5.7 42.3
10:00 1017 30.03 847 25.01 19 66.3 41 5.6 42.1
10:05 1017 30.03 847 25.01 18.6 65.5 43 5.9 42.5
10:10 1017 30.03 847 25.01 18.7 65.7 42 5.6 42.1
10:15 1017 30.03 847 25.01 18.7 65.6 41 5.3 41.6
10:20 1018 30.06 847 25.01 18.8 65.9 40 5.2 41.4
10:25 1017 30.03 847 25.01 19.4 66.9 40 5.7 42.3
10:30 1017 30.03 847 25.01 19.6 67.2 39 5.4 41.8
10:35 1017 30.03 847 25.01 19.9 67.8 36 4.5 40.1
10:40 1018 30.06 847 25.01 20.5 68.9 37 5.6 42
10:45 1018 30.06 847 25.01 20.5 68.9 36 4.9 40.8
10:50 1018 30.06 847 25.01 20 68 38 5.3 41.5
10:55 1018 30.06 847 25.01 20.1 68.2 36 4.9 40.8
11:00 1018 30.06 847 25.01 20.5 68.9 37 5.4 41.8
11:05 1018 30.06 847 25.01 20.8 69.4 35 4.9 40.9
11:10 1018 30.06 847 25.01 21.4 70.4 33 4.7 40.4
11:15 1018 30.06 847 25.01 21.7 71 33 4.8 40.7
11:20 1018 30.06 847 25.01 21.8 71.3 35 6 42.8
11:25 1018 30.06 847 25.01 21.6 70.8 33 4.9 40.9
11:30 1018 30.06 847 25.01 22 71.5 33 5.3 41.5
11:35 1018 30.06 847 25.01 22.4 72.3 33 5.6 42.1
11:40 1018 30.06 847 25.01 22.2 72 35 6.3 43.3
11:45 1018 30.06 847 25.01 21.3 70.3 38 6.5 43.7
11:50 1018 30.06 847 25.01 20.8 69.4 37 5.8 42.5
11:55 1018 30.06 847 25.01 20.6 69.1 36 5.4 41.7
12:00 1018 30.06 847 25.01 21.3 70.3 35 5.6 42
12:05 1018 30.06 847 25.01 21.3 70.3 34 4.9 40.9
12:10 1018 30.06 847 25.01 21.6 70.9 35 5.7 42.2
12:15 1018 30.06 847 25.01 21.3 70.3 35 5.3 41.6
12:20 1018 30.06 847 25.01 21 69.8 37 5.8 42.4
12:25 1018 30.06 847 25.01 20.9 69.6 35 5.1 41.1
12:30 1018 30.06 847 25.01 21.1 70 38 6.5 43.7
12:35 1018 30.06 847 25.01 21.3 70.3 37 6 42.8
12:40 1018 30.06 847 25.01 22.1 71.9 35 6.3 43.3
12:45 1018 30.06 847 25.01 21.7 71.1 35 5.8 42.5
12:50 1018 30.06 847 25.01 21.9 71.4 35 6.1 43
12:55 1018 30.06 847 25.01 21.5 70.8 36 6 42.7
13:00 1017 30.03 847 25.01 21.8 71.3 35 5.9 42.5
13:05 1018 30.06 847 25.01 22.2 72 33 5.5 41.9
13:10 1018 30.06 847 25.01 22.7 72.8 34 6.2 43.2
13:15 1018 30.06 847 25.01 22.6 72.7 33 5.6 42.1
13:20 1018 30.06 847 25.01 23.1 73.6 32 5.8 42.4
13:25 1018 30.06 847 25.01 23.2 73.7 32 5.9 42.6
13:30 1018 30.06 847 25.01 23.3 74 32 6.1 43
13:35 1017 30.03 847 25.01 23.3 73.9 33 6.2 43.1
13:40 1018 30.06 847 25.01 23 73.4 33 6.1 42.9
13:45 1018 30.06 847 25.01 23.2 73.7 32 6 42.8
13:50 1018 30.06 847 25.01 23.4 74.2 32 5.9 42.7
13:55 1017 30.03 847 25.01 23.3 74 33 6.4 43.5
14:00 1017 30.03 847 25.01 23.4 74.1 33 6.3 43.3
14:05 1017 30.03 847 25.01 23.6 74.5 33 6.6 44
14:10 1017 30.03 847 25.01 23 73.4 34 6.6 44
14:15 1017 30.03 846 24.98 23.1 73.5 35 7 44.5
14:20 1017 30.03 846 24.98 23.4 74.1 32 5.9 42.5
14:25 1017 30.03 846 24.98 23.6 74.4 32 6.2 43.2
14:30 1017 30.03 846 24.98 23.5 74.3 32 6 42.9
14:35 1017 30.03 846 24.98 23.7 74.6 31 5.7 42.3
14:40 1017 30.03 846 24.98 23.9 75 32 6.3 43.3
14:45 1017 30.03 846 24.98 23.1 73.5 34 6.6 43.8
14:50 1017 30.03 847 25.01 22.3 72.2 36 6.8 44.2
14:55 1018 30.06 847 25.01 21.8 71.3 36 6.4 43.6
15:00 1018 30.06 847 25.01 21.9 71.3 37 6.7 44
15:05 1018 30.06 847 25.01 21.6 70.8 38 6.9 44.4
15:10 1018 30.06 847 25.01 21.4 70.4 40 7.2 45
15:15 1018 30.06 847 25.01 21.1 70 40 7.1 44.9
15:20 1018 30.06 847 25.01 21.3 70.3 38 6.6 43.9
15:25 1017 30.03 847 25.01 22.2 71.9 35 6.2 43.2
15:30 1017 30.03 846 24.98 22.6 72.6 36 7 44.7
15:35 1017 30.03 846 24.98 22.1 71.8 37 6.9 44.3
15:40 1017 30.03 847 25.01 21.4 70.6 38 6.9 44.4
15:45 1017 30.03 846 24.98 21.1 70 40 7.1 44.7
15:50 1017 30.03 846 24.98 21.1 69.9 40 7.3 45.1
15:55 1017 30.03 847 25.01 20.9 69.5 41 7.4 45.2
16:00 1018 30.06 847 25.01 20.6 69.1 42 7.5 45.5
16:05 1018 30.06 847 25.01 20.4 68.7 43 7.5 45.4
16:10 1018 30.06 847 25.01 20.1 68.1 44 7.7 45.9
16:15 1018 30.06 848 25.04 19.4 67 56 10.7 51.2
16:20 1018 30.06 848 25.04 18.3 64.9 62 10.9 51.7
16:25 1018 30.06 847 25.01 18.2 64.7 60 10.5 50.9
16:30 1018 30.06 847 25.01 18.9 66 60 11 51.8
16:35 1018 30.06 847 25.01 19.5 67.1 59 11.3 52.3
16:40 1018 30.06 847 25.01 20.1 68.2 59 11.9 53.4
16:45 1018 30.06 847 25.01 20.2 68.4 54 10.6 51.1
16:50 1018 30.06 847 25.01 20.4 68.8 56 11.5 52.7
16:55 1018 30.06 847 25.01 20.6 69.2 52 10.6 51.1
17:00 1018 30.06 847 25.01 20.4 68.8 55 11.2 52.1
17:05 1018 30.06 847 25.01 20.1 68.2 52 10.2 50.4
17:10 1018 30.06 847 25.01 19.5 67 56 10.5 51
17:15 1018 30.06 847 25.01 19.1 66.4 55 10 50
17:20 1018 30.06 847 25.01 18.9 66 56 10 50
17:25 1018 30.06 847 25.01 18.7 65.7 58 10.3 50.5
17:30 1018 30.06 847 25.01 18.5 65.3 59 10.4 50.6
17:35 1018 30.06 847 25.01 18.3 65 60 10.5 50.9
17:40 1018 30.06 847 25.01 18.2 64.8 60 10.6 51
17:45 1018 30.06 847 25.01 18.1 64.6 60 10.4 50.7
17:50 1018 30.06 848 25.04 18 64.4 63 11 51.7
17:55 1018 30.06 848 25.04 17.5 63.5 64 10.6 51.1
18:00 1018 30.06 848 25.04 17.3 63.1 64 10.4 50.8
18:05 1019 30.09 848 25.04 17.1 62.7 63 10 50.1
18:10 1019 30.09 848 25.04 17 62.6 64 10.1 50.2
18:15 1019 30.09 848 25.04 17 62.6 63 10.1 50.2
18:20 1019 30.09 848 25.04 17 62.5 64 10.1 50.2
18:25 1018 30.06 848 25.04 16.9 62.5 66 10.5 50.9
18:30 1018 30.06 848 25.04 16.5 61.7 68 10.6 51.2
18:35 1018 30.06 847 25.01 16.1 61 68 10.4 50.7
18:40 1018 30.06 848 25.04 15.9 60.7 68 10.2 50.4
18:45 1018 30.06 847 25.01 15.8 60.4 67 9.8 49.7
18:50 1018 30.06 847 25.01 15.8 60.4 67 9.6 49.4
18:55 1018 30.06 848 25.04 15.7 60.2 67 9.6 49.2
19:00 1018 30.06 847 25.01 15.4 59.6 67 9.3 48.7
19:05 1018 30.06 847 25.01 15.2 59.3 67 9.1 48.3
19:10 1018 30.06 848 25.04 15.2 59.4 70 9.7 49.5
19:15 1019 30.09 848 25.04 14.5 58.1 72 9.6 49.4
19:20 1019 30.09 848 25.04 14.1 57.4 70 8.8 47.9
19:25 1019 30.09 848 25.04 14.5 58.1 66 8.4 47.1
19:30 1019 30.09 848 25.04 15 59 66 8.8 47.9
19:35 1019 30.09 848 25.04 14.8 58.6 66 8.5 47.3
19:40 1019 30.09 848 25.04 14.9 58.7 66 8.6 47.6
19:45 1019 30.09 848 25.04 14.8 58.6 67 8.8 47.8
19:50 1019 30.09 848 25.04 15 58.9 67 8.9 47.9
19:55 1019 30.09 848 25.04 15.1 59.2 66 8.9 47.9
20:00 1019 30.09 848 25.04 15.3 59.5 65 8.9 48
20:05 1019 30.09 848 25.04 15.2 59.4 66 8.9 48.1
20:10 1019 30.09 848 25.04 15.4 59.6 64 8.7 47.6
20:15 1019 30.09 848 25.04 15.4 59.6 65 9 48.2
20:20 1019 30.09 848 25.04 15.2 59.4 66 9 48.3
20:25 1019 30.09 848 25.04 15.3 59.5 66 9 48.1
20:30 1019 30.09 848 25.04 15.1 59.2 67 9.1 48.3
20:35 1019 30.09 848 25.04 15.1 59.3 65 8.8 47.8
20:40 1019 30.09 848 25.04 15.2 59.4 63 8.4 47.1
20:45 1019 30.09 848 25.04 15.4 59.8 65 9 48.3
20:50 1019 30.09 848 25.04 15.5 59.8 64 8.8 47.9
20:55 1019 30.09 849 25.07 15.2 59.4 66 9 48.1
21:00 1019 30.09 848 25.04 15.1 59.2 68 9.4 48.8
21:05 1019 30.09 848 25.04 15 58.9 70 9.5 49.2
21:10 1019 30.09 849 25.07 14.6 58.3 69 9 48.3
21:15 1020 30.12 849 25.07 14.4 57.9 72 9.5 49
21:20 1020 30.12 849 25.07 14.3 57.7 71 9.1 48.4
21:25 1020 30.12 849 25.07 14.2 57.6 68 8.5 47.3
21:30 1020 30.12 849 25.07 14.3 57.7 69 8.7 47.7
21:35 1020 30.12 849 25.07 14.2 57.5 71 9.1 48.4
21:40 1020 30.12 849 25.07 14.1 57.3 73 9.3 48.8
21:45 1020 30.12 849 25.07 13.9 57 74 9.4 48.9
21:50 1020 30.12 850 25.1 13.9 57 72 9 48.1
21:55 1021 30.15 850 25.1 14 57.1 73 9.2 48.6
22:00 1021 30.15 850 25.1 13.9 57.1 71 8.7 47.7
22:05 1020 30.12 849 25.07 13.8 56.8 74 9.2 48.5
22:10 1020 30.12 849 25.07 13.5 56.3 74 8.9 48
22:15 1020 30.12 850 25.1 13.1 55.5 77 9.1 48.3
22:20 1021 30.15 850 25.1 12.6 54.6 78 8.8 47.9
22:25 1021 30.15 850 25.1 12.3 54.1 79 8.7 47.7
22:30 1021 30.15 850 25.1 12.1 53.7 79 8.6 47.4
22:35 1021 30.15 850 25.1 12 53.5 79 8.5 47.3
22:40 1021 30.15 850 25.1 12 53.5 80 8.5 47.4
22:45 1021 30.15 850 25.1 12 53.7 78 8.3 47
22:50 1021 30.15 850 25.1 12.1 53.8 80 8.7 47.7
22:55 1021 30.15 850 25.1 11.9 53.4 81 8.8 47.8
23:00 1021 30.15 850 25.1 11.8 53.2 82 8.9 47.9
23:05 1021 30.15 850 25.1 11.8 53.3 84 9.3 48.7
23:10 1021 30.15 850 25.1 11.7 53.1 85 9.3 48.7
23:15 1021 30.15 850 25.1 11.5 52.8 85 9.2 48.5
23:20 1020 30.12 850 25.1 11.4 52.6 87 9.4 48.8
23:25 1020 30.12 849 25.07 11.3 52.3 88 9.4 48.9
23:30 1020 30.12 849 25.07 11.1 52 88 9.3 48.7
23:35 1020 30.12 850 25.1 11.1 51.9 89 9.3 48.7
23:40 1020 30.12 849 25.07 11 51.8 88 9.2 48.5
23:45 1020 30.12 849 25.07 10.9 51.7 87 8.9 48.1
23:50 1020 30.12 849 25.07 11 51.8 88 9 48.3
23:55 1020 30.12 849 25.07 11 51.9 87 9 48.2
24:00 1021 30.15 850 25.1 11.1 52 88 9.3 48.7